sensor_id;sensor_type;location;lat;lon;timestamp;P1;P2;P0
80643;PMS5003;70010;60.224;24.712;2023-08-30T00:00:42;5;5;
80643;PMS5003;70010;60.224;24.712;2023-08-30T00:03:08;12;12;
80643;PMS5003;70010;60.224;24.712;2023-08-30T00:05:34;8;6;
80643;PMS5003;70010;60.224;24.712;2023-08-30T00:07:59;7;7;
80643;PMS5003;70010;60.224;24.712;2023-08-30T00:10:24;8;7;
80643;PMS5003;70010;60.224;24.712;2023-08-30T00:12:49;9;9;
80643;PMS5003;70010;60.224;24.712;2023-08-30T00:15:15;8;8;
80643;PMS5003;70010;60.224;24.712;2023-08-30T00:17:40;10;8;
80643;PMS5003;70010;60.224;24.712;2023-08-30T00:20:06;11;9;
80643;PMS5003;70010;60.224;24.712;2023-08-30T00:22:30;8;8;
80643;PMS5003;70010;60.224;24.712;2023-08-30T00:24:55;8;8;
80643;PMS5003;70010;60.224;24.712;2023-08-30T00:27:21;9;8;
80643;PMS5003;70010;60.224;24.712;2023-08-30T00:29:46;11;8;
80643;PMS5003;70010;60.224;24.712;2023-08-30T00:32:11;11;8;
80643;PMS5003;70010;60.224;24.712;2023-08-30T00:34:37;9;7;
80643;PMS5003;70010;60.224;24.712;2023-08-30T00:37:02;10;8;
80643;PMS5003;70010;60.224;24.712;2023-08-30T00:39:27;7;7;
80643;PMS5003;70010;60.224;24.712;2023-08-30T00:41:52;7;7;
80643;PMS5003;70010;60.224;24.712;2023-08-30T00:44:18;7;7;
80643;PMS5003;70010;60.224;24.712;2023-08-30T00:46:43;9;8;
80643;PMS5003;70010;60.224;24.712;2023-08-30T00:49:09;7;7;
80643;PMS5003;70010;60.224;24.712;2023-08-30T00:51:34;9;9;
80643;PMS5003;70010;60.224;24.712;2023-08-30T00:53:59;9;9;
80643;PMS5003;70010;60.224;24.712;2023-08-30T00:56:24;10;10;
80643;PMS5003;70010;60.224;24.712;2023-08-30T00:58:50;8;7;
80643;PMS5003;70010;60.224;24.712;2023-08-30T01:01:15;8;8;
80643;PMS5003;70010;60.224;24.712;2023-08-30T01:03:40;7;7;
80643;PMS5003;70010;60.224;24.712;2023-08-30T01:06:05;7;7;
80643;PMS5003;70010;60.224;24.712;2023-08-30T01:08:30;10;10;
80643;PMS5003;70010;60.224;24.712;2023-08-30T01:10:58;9;9;
80643;PMS5003;70010;60.224;24.712;2023-08-30T01:13:21;9;8;
80643;PMS5003;70010;60.224;24.712;2023-08-30T01:15:46;5;5;
80643;PMS5003;70010;60.224;24.712;2023-08-30T01:18:11;7;7;
80643;PMS5003;70010;60.224;24.712;2023-08-30T01:20:37;5;5;
80643;PMS5003;70010;60.224;24.712;2023-08-30T01:23:03;13;8;
80643;PMS5003;70010;60.224;24.712;2023-08-30T01:25:31;9;7;
80643;PMS5003;70010;60.224;24.712;2023-08-30T01:27:52;7;7;
80643;PMS5003;70010;60.224;24.712;2023-08-30T01:30:18;12;9;
80643;PMS5003;70010;60.224;24.712;2023-08-30T01:32:43;6;6;
80643;PMS5003;70010;60.224;24.712;2023-08-30T01:35:08;7;7;
80643;PMS5003;70010;60.224;24.712;2023-08-30T01:37:34;10;8;
80643;PMS5003;70010;60.224;24.712;2023-08-30T01:39:59;10;10;
80643;PMS5003;70010;60.224;24.712;2023-08-30T01:42:25;7;7;
80643;PMS5003;70010;60.224;24.712;2023-08-30T01:44:50;7;7;
80643;PMS5003;70010;60.224;24.712;2023-08-30T01:47:15;8;8;
80643;PMS5003;70010;60.224;24.712;2023-08-30T01:49:40;8;8;
80643;PMS5003;70010;60.224;24.712;2023-08-30T01:52:06;10;9;
80643;PMS5003;70010;60.224;24.712;2023-08-30T01:54:31;10;9;
80643;PMS5003;70010;60.224;24.712;2023-08-30T01:56:56;10;7;
80643;PMS5003;70010;60.224;24.712;2023-08-30T01:59:21;10;9;
80643;PMS5003;70010;60.224;24.712;2023-08-30T02:01:47;8;8;
80643;PMS5003;70010;60.224;24.712;2023-08-30T02:04:13;8;8;
80643;PMS5003;70010;60.224;24.712;2023-08-30T02:06:39;9;7;
80643;PMS5003;70010;60.224;24.712;2023-08-30T02:09:04;9;8;
80643;PMS5003;70010;60.224;24.712;2023-08-30T02:11:28;10;9;
80643;PMS5003;70010;60.224;24.712;2023-08-30T02:13:54;10;8;
80643;PMS5003;70010;60.224;24.712;2023-08-30T02:16:19;9;8;
80643;PMS5003;70010;60.224;24.712;2023-08-30T02:18:44;8;7;
80643;PMS5003;70010;60.224;24.712;2023-08-30T02:21:09;8;8;
80643;PMS5003;70010;60.224;24.712;2023-08-30T02:23:35;12;11;
80643;PMS5003;70010;60.224;24.712;2023-08-30T02:26:00;9;9;
80643;PMS5003;70010;60.224;24.712;2023-08-30T02:28:25;11;10;
80643;PMS5003;70010;60.224;24.712;2023-08-30T02:30:52;10;9;
80643;PMS5003;70010;60.224;24.712;2023-08-30T02:33:16;9;9;
80643;PMS5003;70010;60.224;24.712;2023-08-30T02:35:41;14;11;
80643;PMS5003;70010;60.224;24.712;2023-08-30T02:38:06;12;11;
80643;PMS5003;70010;60.224;24.712;2023-08-30T02:40:31;10;10;
80643;PMS5003;70010;60.224;24.712;2023-08-30T02:42:57;8;8;
80643;PMS5003;70010;60.224;24.712;2023-08-30T02:45:23;9;8;
80643;PMS5003;70010;60.224;24.712;2023-08-30T02:47:48;10;9;
80643;PMS5003;70010;60.224;24.712;2023-08-30T02:50:13;10;10;
80643;PMS5003;70010;60.224;24.712;2023-08-30T02:52:38;9;9;
80643;PMS5003;70010;60.224;24.712;2023-08-30T02:55:04;16;15;
80643;PMS5003;70010;60.224;24.712;2023-08-30T02:57:29;9;8;
80643;PMS5003;70010;60.224;24.712;2023-08-30T02:59:55;10;10;
80643;PMS5003;70010;60.224;24.712;2023-08-30T03:02:20;13;10;
80643;PMS5003;70010;60.224;24.712;2023-08-30T03:04:45;20;17;
80643;PMS5003;70010;60.224;24.712;2023-08-30T03:07:11;14;14;
80643;PMS5003;70010;60.224;24.712;2023-08-30T03:09:36;17;13;
80643;PMS5003;70010;60.224;24.712;2023-08-30T03:12:02;14;12;
80643;PMS5003;70010;60.224;24.712;2023-08-30T03:14:27;11;11;
80643;PMS5003;70010;60.224;24.712;2023-08-30T03:16:52;14;12;
80643;PMS5003;70010;60.224;24.712;2023-08-30T03:19:18;12;11;
80643;PMS5003;70010;60.224;24.712;2023-08-30T03:21:44;11;11;
80643;PMS5003;70010;60.224;24.712;2023-08-30T03:24:09;13;12;
80643;PMS5003;70010;60.224;24.712;2023-08-30T03:26:35;11;11;
80643;PMS5003;70010;60.224;24.712;2023-08-30T03:29:00;19;17;
80643;PMS5003;70010;60.224;24.712;2023-08-30T03:31:25;10;10;
80643;PMS5003;70010;60.224;24.712;2023-08-30T03:33:51;13;13;
80643;PMS5003;70010;60.224;24.712;2023-08-30T03:36:17;13;13;
80643;PMS5003;70010;60.224;24.712;2023-08-30T03:38:42;13;11;
80643;PMS5003;70010;60.224;24.712;2023-08-30T03:41:07;14;13;
80643;PMS5003;70010;60.224;24.712;2023-08-30T03:43:32;15;14;
80643;PMS5003;70010;60.224;24.712;2023-08-30T03:45:58;15;13;
80643;PMS5003;70010;60.224;24.712;2023-08-30T03:48:23;15;13;
80643;PMS5003;70010;60.224;24.712;2023-08-30T03:50:49;16;15;
80643;PMS5003;70010;60.224;24.712;2023-08-30T03:53:14;12;12;
80643;PMS5003;70010;60.224;24.712;2023-08-30T03:55:40;15;15;
80643;PMS5003;70010;60.224;24.712;2023-08-30T03:58:05;20;15;
80643;PMS5003;70010;60.224;24.712;2023-08-30T04:00:31;13;12;
80643;PMS5003;70010;60.224;24.712;2023-08-30T04:02:56;15;12;
80643;PMS5003;70010;60.224;24.712;2023-08-30T04:05:22;11;11;
80643;PMS5003;70010;60.224;24.712;2023-08-30T04:07:47;18;17;
80643;PMS5003;70010;60.224;24.712;2023-08-30T04:10:13;15;15;
80643;PMS5003;70010;60.224;24.712;2023-08-30T04:12:38;13;13;
80643;PMS5003;70010;60.224;24.712;2023-08-30T04:15:04;13;12;
80643;PMS5003;70010;60.224;24.712;2023-08-30T04:17:29;18;15;
80643;PMS5003;70010;60.224;24.712;2023-08-30T04:19:55;16;12;
80643;PMS5003;70010;60.224;24.712;2023-08-30T04:22:20;14;14;
80643;PMS5003;70010;60.224;24.712;2023-08-30T04:24:45;14;11;
80643;PMS5003;70010;60.224;24.712;2023-08-30T04:27:11;14;12;
80643;PMS5003;70010;60.224;24.712;2023-08-30T04:29:36;13;12;
80643;PMS5003;70010;60.224;24.712;2023-08-30T04:32:01;15;15;
80643;PMS5003;70010;60.224;24.712;2023-08-30T04:34:27;18;17;
80643;PMS5003;70010;60.224;24.712;2023-08-30T04:36:52;18;14;
80643;PMS5003;70010;60.224;24.712;2023-08-30T04:39:18;14;13;
80643;PMS5003;70010;60.224;24.712;2023-08-30T04:41:44;13;13;
80643;PMS5003;70010;60.224;24.712;2023-08-30T04:44:09;12;12;
80643;PMS5003;70010;60.224;24.712;2023-08-30T04:46:34;15;12;
80643;PMS5003;70010;60.224;24.712;2023-08-30T04:49:00;17;14;
80643;PMS5003;70010;60.224;24.712;2023-08-30T04:51:26;13;12;
80643;PMS5003;70010;60.224;24.712;2023-08-30T04:53:51;13;13;
80643;PMS5003;70010;60.224;24.712;2023-08-30T04:56:17;20;17;
80643;PMS5003;70010;60.224;24.712;2023-08-30T04:58:43;12;12;
80643;PMS5003;70010;60.224;24.712;2023-08-30T05:01:09;14;12;
80643;PMS5003;70010;60.224;24.712;2023-08-30T05:03:34;13;13;
80643;PMS5003;70010;60.224;24.712;2023-08-30T05:05:59;18;14;
80643;PMS5003;70010;60.224;24.712;2023-08-30T05:08:25;14;12;
80643;PMS5003;70010;60.224;24.712;2023-08-30T05:10:53;10;10;
80643;PMS5003;70010;60.224;24.712;2023-08-30T05:13:16;17;17;
80643;PMS5003;70010;60.224;24.712;2023-08-30T05:15:42;14;14;
80643;PMS5003;70010;60.224;24.712;2023-08-30T05:18:07;14;14;
80643;PMS5003;70010;60.224;24.712;2023-08-30T05:20:32;17;17;
80643;PMS5003;70010;60.224;24.712;2023-08-30T05:22:57;13;13;
80643;PMS5003;70010;60.224;24.712;2023-08-30T05:25:23;15;13;
80643;PMS5003;70010;60.224;24.712;2023-08-30T05:27:49;15;13;
80643;PMS5003;70010;60.224;24.712;2023-08-30T05:30:14;14;13;
80643;PMS5003;70010;60.224;24.712;2023-08-30T05:32:40;17;15;
80643;PMS5003;70010;60.224;24.712;2023-08-30T05:35:05;11;11;
80643;PMS5003;70010;60.224;24.712;2023-08-30T05:37:30;14;12;
80643;PMS5003;70010;60.224;24.712;2023-08-30T05:39:56;13;13;
80643;PMS5003;70010;60.224;24.712;2023-08-30T05:42:21;13;13;
80643;PMS5003;70010;60.224;24.712;2023-08-30T05:44:47;17;14;
80643;PMS5003;70010;60.224;24.712;2023-08-30T05:47:12;16;15;
80643;PMS5003;70010;60.224;24.712;2023-08-30T05:49:38;16;15;
80643;PMS5003;70010;60.224;24.712;2023-08-30T05:52:03;15;14;
80643;PMS5003;70010;60.224;24.712;2023-08-30T05:54:28;16;15;
80643;PMS5003;70010;60.224;24.712;2023-08-30T05:56:53;14;13;
80643;PMS5003;70010;60.224;24.712;2023-08-30T05:59:19;14;14;
80643;PMS5003;70010;60.224;24.712;2023-08-30T06:01:44;16;16;
80643;PMS5003;70010;60.224;24.712;2023-08-30T06:04:10;13;13;
80643;PMS5003;70010;60.224;24.712;2023-08-30T06:06:36;17;15;
80643;PMS5003;70010;60.224;24.712;2023-08-30T06:09:00;14;14;
80643;PMS5003;70010;60.224;24.712;2023-08-30T06:11:25;13;13;
80643;PMS5003;70010;60.224;24.712;2023-08-30T06:13:51;14;13;
80643;PMS5003;70010;60.224;24.712;2023-08-30T06:16:16;17;17;
80643;PMS5003;70010;60.224;24.712;2023-08-30T06:18:42;17;15;
80643;PMS5003;70010;60.224;24.712;2023-08-30T06:21:07;14;14;
80643;PMS5003;70010;60.224;24.712;2023-08-30T06:23:32;19;19;
80643;PMS5003;70010;60.224;24.712;2023-08-30T06:25:58;17;16;
80643;PMS5003;70010;60.224;24.712;2023-08-30T06:28:23;16;13;
80643;PMS5003;70010;60.224;24.712;2023-08-30T06:30:49;17;16;
80643;PMS5003;70010;60.224;24.712;2023-08-30T06:33:14;17;15;
80643;PMS5003;70010;60.224;24.712;2023-08-30T06:35:39;14;14;
80643;PMS5003;70010;60.224;24.712;2023-08-30T06:38:05;16;14;
80643;PMS5003;70010;60.224;24.712;2023-08-30T06:40:31;16;15;
80643;PMS5003;70010;60.224;24.712;2023-08-30T06:42:56;15;15;
80643;PMS5003;70010;60.224;24.712;2023-08-30T06:45:22;11;11;
80643;PMS5003;70010;60.224;24.712;2023-08-30T06:47:48;12;12;
80643;PMS5003;70010;60.224;24.712;2023-08-30T06:50:13;11;11;
80643;PMS5003;70010;60.224;24.712;2023-08-30T06:52:38;12;12;
80643;PMS5003;70010;60.224;24.712;2023-08-30T06:55:03;13;13;
80643;PMS5003;70010;60.224;24.712;2023-08-30T06:57:28;18;18;
80643;PMS5003;70010;60.224;24.712;2023-08-30T06:59:54;12;12;
80643;PMS5003;70010;60.224;24.712;2023-08-30T07:02:19;12;10;
80643;PMS5003;70010;60.224;24.712;2023-08-30T07:04:44;11;11;
80643;PMS5003;70010;60.224;24.712;2023-08-30T07:07:11;15;13;
80643;PMS5003;70010;60.224;24.712;2023-08-30T07:09:35;11;11;
80643;PMS5003;70010;60.224;24.712;2023-08-30T07:12:00;13;13;
80643;PMS5003;70010;60.224;24.712;2023-08-30T07:14:25;12;12;
80643;PMS5003;70010;60.224;24.712;2023-08-30T07:16:50;13;12;
80643;PMS5003;70010;60.224;24.712;2023-08-30T07:19:16;11;11;
80643;PMS5003;70010;60.224;24.712;2023-08-30T07:21:41;13;12;
80643;PMS5003;70010;60.224;24.712;2023-08-30T07:24:06;12;12;
80643;PMS5003;70010;60.224;24.712;2023-08-30T07:26:32;11;11;
80643;PMS5003;70010;60.224;24.712;2023-08-30T07:28:57;13;10;
80643;PMS5003;70010;60.224;24.712;2023-08-30T07:31:22;12;11;
80643;PMS5003;70010;60.224;24.712;2023-08-30T07:33:48;17;16;
80643;PMS5003;70010;60.224;24.712;2023-08-30T07:36:13;14;13;
80643;PMS5003;70010;60.224;24.712;2023-08-30T07:38:39;9;9;
80643;PMS5003;70010;60.224;24.712;2023-08-30T07:41:05;10;10;
80643;PMS5003;70010;60.224;24.712;2023-08-30T07:43:30;14;12;
80643;PMS5003;70010;60.224;24.712;2023-08-30T07:45:55;13;13;
80643;PMS5003;70010;60.224;24.712;2023-08-30T07:48:21;12;9;
80643;PMS5003;70010;60.224;24.712;2023-08-30T07:50:46;16;13;
80643;PMS5003;70010;60.224;24.712;2023-08-30T07:53:12;12;11;
80643;PMS5003;70010;60.224;24.712;2023-08-30T07:55:37;14;11;
80643;PMS5003;70010;60.224;24.712;2023-08-30T07:58:03;16;16;
80643;PMS5003;70010;60.224;24.712;2023-08-30T08:00:28;12;11;
80643;PMS5003;70010;60.224;24.712;2023-08-30T08:02:54;9;9;
80643;PMS5003;70010;60.224;24.712;2023-08-30T08:05:19;12;11;
80643;PMS5003;70010;60.224;24.712;2023-08-30T08:07:45;17;16;
80643;PMS5003;70010;60.224;24.712;2023-08-30T08:10:10;14;12;
80643;PMS5003;70010;60.224;24.712;2023-08-30T08:12:36;9;9;
80643;PMS5003;70010;60.224;24.712;2023-08-30T08:15:01;11;9;
80643;PMS5003;70010;60.224;24.712;2023-08-30T08:17:27;9;9;
80643;PMS5003;70010;60.224;24.712;2023-08-30T08:19:52;9;9;
80643;PMS5003;70010;60.224;24.712;2023-08-30T08:22:18;10;10;
80643;PMS5003;70010;60.224;24.712;2023-08-30T08:24:43;9;9;
80643;PMS5003;70010;60.224;24.712;2023-08-30T08:27:08;14;13;
80643;PMS5003;70010;60.224;24.712;2023-08-30T08:29:33;10;8;
80643;PMS5003;70010;60.224;24.712;2023-08-30T08:31:59;9;9;
80643;PMS5003;70010;60.224;24.712;2023-08-30T08:34:24;9;9;
80643;PMS5003;70010;60.224;24.712;2023-08-30T08:36:50;11;10;
80643;PMS5003;70010;60.224;24.712;2023-08-30T08:39:15;12;9;
80643;PMS5003;70010;60.224;24.712;2023-08-30T08:41:40;9;8;
80643;PMS5003;70010;60.224;24.712;2023-08-30T08:44:05;9;8;
80643;PMS5003;70010;60.224;24.712;2023-08-30T08:46:30;8;8;
80643;PMS5003;70010;60.224;24.712;2023-08-30T08:48:56;10;8;
80643;PMS5003;70010;60.224;24.712;2023-08-30T08:51:21;13;10;
80643;PMS5003;70010;60.224;24.712;2023-08-30T08:53:47;11;10;
80643;PMS5003;70010;60.224;24.712;2023-08-30T08:56:12;11;9;
80643;PMS5003;70010;60.224;24.712;2023-08-30T08:58:38;10;9;
80643;PMS5003;70010;60.224;24.712;2023-08-30T09:01:03;9;9;
80643;PMS5003;70010;60.224;24.712;2023-08-30T09:03:28;8;8;
80643;PMS5003;70010;60.224;24.712;2023-08-30T09:05:53;10;9;
80643;PMS5003;70010;60.224;24.712;2023-08-30T09:08:19;8;8;
80643;PMS5003;70010;60.224;24.712;2023-08-30T09:10:44;8;8;
80643;PMS5003;70010;60.224;24.712;2023-08-30T09:13:09;10;9;
80643;PMS5003;70010;60.224;24.712;2023-08-30T09:15:35;9;9;
80643;PMS5003;70010;60.224;24.712;2023-08-30T09:18:00;9;9;
80643;PMS5003;70010;60.224;24.712;2023-08-30T09:20:25;11;10;
80643;PMS5003;70010;60.224;24.712;2023-08-30T09:22:51;9;9;
80643;PMS5003;70010;60.224;24.712;2023-08-30T09:27:41;10;10;
80643;PMS5003;70010;60.224;24.712;2023-08-30T09:30:07;9;9;
80643;PMS5003;70010;60.224;24.712;2023-08-30T09:32:32;12;10;
80643;PMS5003;70010;60.224;24.712;2023-08-30T09:34:57;6;6;
80643;PMS5003;70010;60.224;24.712;2023-08-30T09:37:22;9;9;
80643;PMS5003;70010;60.224;24.712;2023-08-30T09:39:49;9;9;
80643;PMS5003;70010;60.224;24.712;2023-08-30T09:42:13;10;10;
80643;PMS5003;70010;60.224;24.712;2023-08-30T09:44:38;10;9;
80643;PMS5003;70010;60.224;24.712;2023-08-30T09:47:03;7;7;
80643;PMS5003;70010;60.224;24.712;2023-08-30T09:49:29;9;9;
80643;PMS5003;70010;60.224;24.712;2023-08-30T09:51:54;9;8;
80643;PMS5003;70010;60.224;24.712;2023-08-30T09:54:19;10;8;
80643;PMS5003;70010;60.224;24.712;2023-08-30T09:56:44;7;7;
80643;PMS5003;70010;60.224;24.712;2023-08-30T09:59:10;8;8;
80643;PMS5003;70010;60.224;24.712;2023-08-30T10:01:34;10;9;
80643;PMS5003;70010;60.224;24.712;2023-08-30T10:04:00;10;8;
80643;PMS5003;70010;60.224;24.712;2023-08-30T10:06:25;10;10;
80643;PMS5003;70010;60.224;24.712;2023-08-30T10:08:51;10;10;
80643;PMS5003;70010;60.224;24.712;2023-08-30T10:11:16;10;9;
80643;PMS5003;70010;60.224;24.712;2023-08-30T10:13:42;8;8;
80643;PMS5003;70010;60.224;24.712;2023-08-30T10:16:07;9;9;
80643;PMS5003;70010;60.224;24.712;2023-08-30T10:18:32;10;10;
80643;PMS5003;70010;60.224;24.712;2023-08-30T10:20:57;12;11;
80643;PMS5003;70010;60.224;24.712;2023-08-30T10:23:22;11;9;
80643;PMS5003;70010;60.224;24.712;2023-08-30T10:25:48;12;9;
80643;PMS5003;70010;60.224;24.712;2023-08-30T10:28:14;10;8;
80643;PMS5003;70010;60.224;24.712;2023-08-30T10:30:39;10;10;
80643;PMS5003;70010;60.224;24.712;2023-08-30T10:35:30;11;9;
80643;PMS5003;70010;60.224;24.712;2023-08-30T10:37:55;8;8;
80643;PMS5003;70010;60.224;24.712;2023-08-30T10:40:20;8;8;
80643;PMS5003;70010;60.224;24.712;2023-08-30T10:42:46;8;8;
80643;PMS5003;70010;60.224;24.712;2023-08-30T10:45:11;7;7;
80643;PMS5003;70010;60.224;24.712;2023-08-30T10:47:37;8;8;
80643;PMS5003;70010;60.224;24.712;2023-08-30T10:50:04;10;9;
80643;PMS5003;70010;60.224;24.712;2023-08-30T10:52:27;9;9;
80643;PMS5003;70010;60.224;24.712;2023-08-30T10:54:52;9;9;
80643;PMS5003;70010;60.224;24.712;2023-08-30T10:57:18;7;7;
80643;PMS5003;70010;60.224;24.712;2023-08-30T10:59:55;9;8;
80643;PMS5003;70010;60.224;24.712;2023-08-30T11:02:08;7;6;
80643;PMS5003;70010;60.224;24.712;2023-08-30T11:04:33;11;11;
80643;PMS5003;70010;60.224;24.712;2023-08-30T11:06:58;7;7;
80643;PMS5003;70010;60.224;24.712;2023-08-30T11:09:24;6;6;
80643;PMS5003;70010;60.224;24.712;2023-08-30T11:11:49;8;5;
80643;PMS5003;70010;60.224;24.712;2023-08-30T11:14:14;6;6;
80643;PMS5003;70010;60.224;24.712;2023-08-30T11:16:39;5;5;
80643;PMS5003;70010;60.224;24.712;2023-08-30T11:19:04;5;5;
80643;PMS5003;70010;60.224;24.712;2023-08-30T11:21:29;6;6;
80643;PMS5003;70010;60.224;24.712;2023-08-30T11:23:54;6;6;
80643;PMS5003;70010;60.224;24.712;2023-08-30T11:26:20;6;6;
80643;PMS5003;70010;60.224;24.712;2023-08-30T11:28:45;7;7;
80643;PMS5003;70010;60.224;24.712;2023-08-30T11:31:10;4;4;
80643;PMS5003;70010;60.224;24.712;2023-08-30T11:33:35;6;6;
80643;PMS5003;70010;60.224;24.712;2023-08-30T11:36:00;5;5;
80643;PMS5003;70010;60.224;24.712;2023-08-30T11:38:25;7;5;
80643;PMS5003;70010;60.224;24.712;2023-08-30T11:40:51;6;6;
80643;PMS5003;70010;60.224;24.712;2023-08-30T11:43:16;6;6;
80643;PMS5003;70010;60.224;24.712;2023-08-30T11:45:42;5;5;
80643;PMS5003;70010;60.224;24.712;2023-08-30T11:48:07;6;6;
80643;PMS5003;70010;60.224;24.712;2023-08-30T11:50:32;5;5;
80643;PMS5003;70010;60.224;24.712;2023-08-30T11:52:57;7;7;
80643;PMS5003;70010;60.224;24.712;2023-08-30T11:55:22;7;6;
80643;PMS5003;70010;60.224;24.712;2023-08-30T11:57:48;8;8;
80643;PMS5003;70010;60.224;24.712;2023-08-30T12:00:14;8;8;
80643;PMS5003;70010;60.224;24.712;2023-08-30T12:02:39;7;7;
80643;PMS5003;70010;60.224;24.712;2023-08-30T12:05:04;5;5;
80643;PMS5003;70010;60.224;24.712;2023-08-30T12:07:29;10;9;
80643;PMS5003;70010;60.224;24.712;2023-08-30T12:12:23;8;8;
80643;PMS5003;70010;60.224;24.712;2023-08-30T12:14:53;10;9;
80643;PMS5003;70010;60.224;24.712;2023-08-30T12:17:10;8;8;
80643;PMS5003;70010;60.224;24.712;2023-08-30T12:19:35;11;11;
80643;PMS5003;70010;60.224;24.712;2023-08-30T12:22:04;9;9;
80643;PMS5003;70010;60.224;24.712;2023-08-30T12:24:26;9;9;
80643;PMS5003;70010;60.224;24.712;2023-08-30T12:26:52;10;9;
80643;PMS5003;70010;60.224;24.712;2023-08-30T12:29:17;14;9;
80643;PMS5003;70010;60.224;24.712;2023-08-30T12:31:42;10;9;
80643;PMS5003;70010;60.224;24.712;2023-08-30T12:34:07;10;10;
80643;PMS5003;70010;60.224;24.712;2023-08-30T12:36:32;12;10;
80643;PMS5003;70010;60.224;24.712;2023-08-30T12:38:58;9;9;
80643;PMS5003;70010;60.224;24.712;2023-08-30T12:41:23;8;8;
80643;PMS5003;70010;60.224;24.712;2023-08-30T12:43:48;10;8;
80643;PMS5003;70010;60.224;24.712;2023-08-30T12:46:13;8;8;
80643;PMS5003;70010;60.224;24.712;2023-08-30T12:48:38;8;7;
80643;PMS5003;70010;60.224;24.712;2023-08-30T12:51:03;11;9;
80643;PMS5003;70010;60.224;24.712;2023-08-30T12:53:29;10;10;
80643;PMS5003;70010;60.224;24.712;2023-08-30T12:55:54;13;10;
80643;PMS5003;70010;60.224;24.712;2023-08-30T12:58:20;12;10;
80643;PMS5003;70010;60.224;24.712;2023-08-30T13:00:45;10;9;
80643;PMS5003;70010;60.224;24.712;2023-08-30T13:03:10;11;10;
80643;PMS5003;70010;60.224;24.712;2023-08-30T13:05:35;14;9;
80643;PMS5003;70010;60.224;24.712;2023-08-30T13:08:01;10;9;
80643;PMS5003;70010;60.224;24.712;2023-08-30T13:10:26;7;7;
80643;PMS5003;70010;60.224;24.712;2023-08-30T13:12:51;9;9;
80643;PMS5003;70010;60.224;24.712;2023-08-30T13:15:17;10;9;
80643;PMS5003;70010;60.224;24.712;2023-08-30T13:17:42;15;8;
80643;PMS5003;70010;60.224;24.712;2023-08-30T13:20:09;7;7;
80643;PMS5003;70010;60.224;24.712;2023-08-30T13:22:33;9;8;
80643;PMS5003;70010;60.224;24.712;2023-08-30T13:24:58;9;8;
80643;PMS5003;70010;60.224;24.712;2023-08-30T13:27:23;8;8;
80643;PMS5003;70010;60.224;24.712;2023-08-30T13:29:49;9;9;
80643;PMS5003;70010;60.224;24.712;2023-08-30T13:32:14;11;10;
80643;PMS5003;70010;60.224;24.712;2023-08-30T13:34:39;9;9;
80643;PMS5003;70010;60.224;24.712;2023-08-30T13:37:05;8;8;
80643;PMS5003;70010;60.224;24.712;2023-08-30T13:39:30;11;9;
80643;PMS5003;70010;60.224;24.712;2023-08-30T13:41:56;9;9;
80643;PMS5003;70010;60.224;24.712;2023-08-30T13:44:21;11;9;
80643;PMS5003;70010;60.224;24.712;2023-08-30T13:46:46;11;10;
80643;PMS5003;70010;60.224;24.712;2023-08-30T13:49:12;9;8;
80643;PMS5003;70010;60.224;24.712;2023-08-30T13:51:38;9;9;
80643;PMS5003;70010;60.224;24.712;2023-08-30T13:54:03;9;9;
80643;PMS5003;70010;60.224;24.712;2023-08-30T13:56:28;10;7;
80643;PMS5003;70010;60.224;24.712;2023-08-30T13:58:55;8;7;
80643;PMS5003;70010;60.224;24.712;2023-08-30T14:01:18;10;10;
80643;PMS5003;70010;60.224;24.712;2023-08-30T14:03:44;9;9;
80643;PMS5003;70010;60.224;24.712;2023-08-30T14:06:09;7;7;
80643;PMS5003;70010;60.224;24.712;2023-08-30T14:08:35;12;9;
80643;PMS5003;70010;60.224;24.712;2023-08-30T14:11:00;10;8;
80643;PMS5003;70010;60.224;24.712;2023-08-30T14:13:25;7;7;
80643;PMS5003;70010;60.224;24.712;2023-08-30T14:15:50;8;8;
80643;PMS5003;70010;60.224;24.712;2023-08-30T14:18:16;8;8;
80643;PMS5003;70010;60.224;24.712;2023-08-30T14:20:41;10;10;
80643;PMS5003;70010;60.224;24.712;2023-08-30T14:23:07;10;7;
80643;PMS5003;70010;60.224;24.712;2023-08-30T14:25:32;8;8;
80643;PMS5003;70010;60.224;24.712;2023-08-30T14:27:57;7;6;
80643;PMS5003;70010;60.224;24.712;2023-08-30T14:30:22;9;7;
80643;PMS5003;70010;60.224;24.712;2023-08-30T14:32:48;7;7;
80643;PMS5003;70010;60.224;24.712;2023-08-30T14:35:13;6;6;
80643;PMS5003;70010;60.224;24.712;2023-08-30T14:37:39;10;9;
80643;PMS5003;70010;60.224;24.712;2023-08-30T14:40:04;8;8;
80643;PMS5003;70010;60.224;24.712;2023-08-30T14:42:29;6;6;
80643;PMS5003;70010;60.224;24.712;2023-08-30T14:44:54;10;8;
80643;PMS5003;70010;60.224;24.712;2023-08-30T14:47:19;8;7;
80643;PMS5003;70010;60.224;24.712;2023-08-30T14:49:44;6;6;
80643;PMS5003;70010;60.224;24.712;2023-08-30T14:52:10;8;8;
80643;PMS5003;70010;60.224;24.712;2023-08-30T14:54:35;6;4;
80643;PMS5003;70010;60.224;24.712;2023-08-30T14:57:00;7;7;
80643;PMS5003;70010;60.224;24.712;2023-08-30T14:59:26;10;8;
80643;PMS5003;70010;60.224;24.712;2023-08-30T15:01:51;6;6;
80643;PMS5003;70010;60.224;24.712;2023-08-30T15:04:16;5;5;
80643;PMS5003;70010;60.224;24.712;2023-08-30T15:06:41;5;4;
80643;PMS5003;70010;60.224;24.712;2023-08-30T15:09:08;8;8;
80643;PMS5003;70010;60.224;24.712;2023-08-30T15:11:32;7;6;
80643;PMS5003;70010;60.224;24.712;2023-08-30T15:13:57;5;5;
80643;PMS5003;70010;60.224;24.712;2023-08-30T15:16:22;5;5;
80643;PMS5003;70010;60.224;24.712;2023-08-30T15:18:48;6;4;
80643;PMS5003;70010;60.224;24.712;2023-08-30T15:21:13;6;4;
80643;PMS5003;70010;60.224;24.712;2023-08-30T15:23:38;8;7;
80643;PMS5003;70010;60.224;24.712;2023-08-30T15:26:03;9;7;
80643;PMS5003;70010;60.224;24.712;2023-08-30T15:28:28;9;8;
80643;PMS5003;70010;60.224;24.712;2023-08-30T15:30:54;8;7;
80643;PMS5003;70010;60.224;24.712;2023-08-30T15:33:19;10;9;
80643;PMS5003;70010;60.224;24.712;2023-08-30T15:35:44;8;8;
80643;PMS5003;70010;60.224;24.712;2023-08-30T15:38:10;9;9;
80643;PMS5003;70010;60.224;24.712;2023-08-30T15:40:36;10;8;
80643;PMS5003;70010;60.224;24.712;2023-08-30T15:43:01;8;8;
80643;PMS5003;70010;60.224;24.712;2023-08-30T15:45:26;9;9;
80643;PMS5003;70010;60.224;24.712;2023-08-30T15:47:52;9;8;
80643;PMS5003;70010;60.224;24.712;2023-08-30T15:50:17;9;9;
80643;PMS5003;70010;60.224;24.712;2023-08-30T15:52:42;11;9;
80643;PMS5003;70010;60.224;24.712;2023-08-30T15:55:08;9;9;
80643;PMS5003;70010;60.224;24.712;2023-08-30T15:57:33;11;10;
80643;PMS5003;70010;60.224;24.712;2023-08-30T15:59:58;14;10;
80643;PMS5003;70010;60.224;24.712;2023-08-30T16:02:24;9;9;
80643;PMS5003;70010;60.224;24.712;2023-08-30T16:04:49;11;9;
80643;PMS5003;70010;60.224;24.712;2023-08-30T16:07:14;8;8;
80643;PMS5003;70010;60.224;24.712;2023-08-30T16:09:39;11;10;
80643;PMS5003;70010;60.224;24.712;2023-08-30T16:12:05;12;10;